РПИ Актобе

РПИ Актобе является структурным подразделением дивизиона VATRUS сети VATSIM.

РПИ осуществляет свою деятельность в границах Актюбинской, Атырауской, Мангистауской и Западно-Казахстанской областей Республики Казахстан.

Схемы и аэронавигационную информацию можно получить на сайте   Казаэронавигация

Средства связи ОВД:

UATT_CTR - Актобе Контроль - 129.600

RU-CEN_FSS - Азия Центр  - 132.850 (РПИ: UACN, UAAA, UAII, UATT, UTAA, UCFM, UTAT, UTDD, UTTRUCFOUTSD, UTAVUTAK)

Руководство

Evgeny Vygornitsky*

Куратор

Dmitriy Bannov

Помощник куратора по Казахстану
Инструкторы РПИ
Alexandr Sokolov * (Controller)
Evgeny Vygornitsky (Supervisor)
Входит в состав
Центральная Азия

Диспетчеры РПИ

Диспетчер Рейтинг Допуски *

Аэропорты РПИ

ICAO Город Название Погода
UATT Актобе Актобе UATT 020730Z 17002MPS CAVOK M07/M10 Q1034 NOSIG RMK QFE756/1008
UATG Атырау Атырау UATG 020730Z 06006MPS CAVOK 04/M07 Q1031 NOSIG RMK QFE776/1034
UARR Уральск Уральск UARR 020730Z 06001MPS 9999 SCT003 M10/M11 Q1035 NOSIG RMK QBB110 QFE773/1031